sensor_id;sensor_type;location;lat;lon;timestamp;temperature;humidity
13409;DHT22;6775;49.574;11.170;2022-11-20T00:00:55;1.70;99.90
13409;DHT22;6775;49.574;11.170;2022-11-20T00:03:24;1.90;99.90
13409;DHT22;6775;49.574;11.170;2022-11-20T00:05:52;2.00;99.90
13409;DHT22;6775;49.574;11.170;2022-11-20T00:08:20;2.10;99.90
13409;DHT22;6775;49.574;11.170;2022-11-20T00:10:48;2.10;99.90
13409;DHT22;6775;49.574;11.170;2022-11-20T00:13:16;1.90;99.90
13409;DHT22;6775;49.574;11.170;2022-11-20T00:15:44;1.80;99.90
13409;DHT22;6775;49.574;11.170;2022-11-20T00:18:12;1.70;99.90
13409;DHT22;6775;49.574;11.170;2022-11-20T00:20:41;1.60;99.90
13409;DHT22;6775;49.574;11.170;2022-11-20T00:23:09;1.60;99.90
13409;DHT22;6775;49.574;11.170;2022-11-20T00:25:37;1.60;99.90
13409;DHT22;6775;49.574;11.170;2022-11-20T00:28:05;1.50;99.90
13409;DHT22;6775;49.574;11.170;2022-11-20T00:30:33;1.50;99.90
13409;DHT22;6775;49.574;11.170;2022-11-20T00:33:00;1.50;99.90
13409;DHT22;6775;49.574;11.170;2022-11-20T00:35:28;1.50;99.90
13409;DHT22;6775;49.574;11.170;2022-11-20T00:37:58;1.50;99.90
13409;DHT22;6775;49.574;11.170;2022-11-20T00:40:26;1.50;99.90
13409;DHT22;6775;49.574;11.170;2022-11-20T00:42:54;1.40;99.90
13409;DHT22;6775;49.574;11.170;2022-11-20T00:45:22;1.40;99.90
13409;DHT22;6775;49.574;11.170;2022-11-20T00:47:50;1.40;99.90
13409;DHT22;6775;49.574;11.170;2022-11-20T00:50:18;1.40;99.90
13409;DHT22;6775;49.574;11.170;2022-11-20T00:52:45;1.50;99.90
13409;DHT22;6775;49.574;11.170;2022-11-20T00:55:15;1.50;99.90
13409;DHT22;6775;49.574;11.170;2022-11-20T00:57:43;1.50;99.90
13409;DHT22;6775;49.574;11.170;2022-11-20T01:00:11;1.40;99.90
13409;DHT22;6775;49.574;11.170;2022-11-20T01:02:39;0.80;99.90
13409;DHT22;6775;49.574;11.170;2022-11-20T01:05:07;1.40;99.90
13409;DHT22;6775;49.574;11.170;2022-11-20T01:07:35;1.50;99.90
13409;DHT22;6775;49.574;11.170;2022-11-20T01:10:04;1.50;99.90
13409;DHT22;6775;49.574;11.170;2022-11-20T01:12:34;1.50;99.90
13409;DHT22;6775;49.574;11.170;2022-11-20T01:15:02;1.50;99.90
13409;DHT22;6775;49.574;11.170;2022-11-20T01:17:31;1.60;99.90
13409;DHT22;6775;49.574;11.170;2022-11-20T01:19:59;1.60;99.90
13409;DHT22;6775;49.574;11.170;2022-11-20T01:22:27;1.50;99.90
13409;DHT22;6775;49.574;11.170;2022-11-20T01:24:55;1.50;99.90
13409;DHT22;6775;49.574;11.170;2022-11-20T01:27:22;1.40;99.90
13409;DHT22;6775;49.574;11.170;2022-11-20T01:29:52;1.50;99.90
13409;DHT22;6775;49.574;11.170;2022-11-20T01:32:26;1.50;99.90
13409;DHT22;6775;49.574;11.170;2022-11-20T01:34:54;1.50;99.90
13409;DHT22;6775;49.574;11.170;2022-11-20T01:37:22;1.50;99.90
13409;DHT22;6775;49.574;11.170;2022-11-20T01:39:50;1.60;99.90
13409;DHT22;6775;49.574;11.170;2022-11-20T01:42:18;1.60;99.90
13409;DHT22;6775;49.574;11.170;2022-11-20T01:48:11;1.60;99.90
13409;DHT22;6775;49.574;11.170;2022-11-20T01:50:40;1.60;99.90
13409;DHT22;6775;49.574;11.170;2022-11-20T01:53:12;1.80;99.90
13409;DHT22;6775;49.574;11.170;2022-11-20T01:55:45;1.80;99.90
13409;DHT22;6775;49.574;11.170;2022-11-20T01:58:14;1.90;99.90
13409;DHT22;6775;49.574;11.170;2022-11-20T02:00:43;1.90;99.90
13409;DHT22;6775;49.574;11.170;2022-11-20T02:03:14;1.90;99.90
13409;DHT22;6775;49.574;11.170;2022-11-20T02:05:46;1.90;99.90
13409;DHT22;6775;49.574;11.170;2022-11-20T02:08:15;1.90;99.90
13409;DHT22;6775;49.574;11.170;2022-11-20T02:10:43;1.90;99.90
13409;DHT22;6775;49.574;11.170;2022-11-20T02:13:11;1.90;99.90
13409;DHT22;6775;49.574;11.170;2022-11-20T02:15:57;1.90;99.90
13409;DHT22;6775;49.574;11.170;2022-11-20T02:18:26;2.00;99.90
13409;DHT22;6775;49.574;11.170;2022-11-20T02:21:01;2.00;99.90
13409;DHT22;6775;49.574;11.170;2022-11-20T02:23:34;2.00;99.90
13409;DHT22;6775;49.574;11.170;2022-11-20T02:26:10;2.10;99.90
13409;DHT22;6775;49.574;11.170;2022-11-20T02:28:39;2.10;99.90
13409;DHT22;6775;49.574;11.170;2022-11-20T02:31:07;2.00;99.90
13409;DHT22;6775;49.574;11.170;2022-11-20T02:33:35;2.00;99.90
13409;DHT22;6775;49.574;11.170;2022-11-20T02:36:03;2.10;99.90
13409;DHT22;6775;49.574;11.170;2022-11-20T02:38:31;2.20;99.90
13409;DHT22;6775;49.574;11.170;2022-11-20T02:40:59;2.30;99.90
13409;DHT22;6775;49.574;11.170;2022-11-20T02:43:28;2.30;99.90
13409;DHT22;6775;49.574;11.170;2022-11-20T02:45:56;2.30;99.90
13409;DHT22;6775;49.574;11.170;2022-11-20T02:48:24;2.30;99.90
13409;DHT22;6775;49.574;11.170;2022-11-20T02:50:56;2.20;99.90
13409;DHT22;6775;49.574;11.170;2022-11-20T02:53:24;2.20;99.90
13409;DHT22;6775;49.574;11.170;2022-11-20T02:55:52;2.20;99.90
13409;DHT22;6775;49.574;11.170;2022-11-20T02:58:20;2.10;99.90
13409;DHT22;6775;49.574;11.170;2022-11-20T03:00:49;2.20;99.90
13409;DHT22;6775;49.574;11.170;2022-11-20T03:03:17;2.20;99.90
13409;DHT22;6775;49.574;11.170;2022-11-20T03:05:45;2.30;99.90
13409;DHT22;6775;49.574;11.170;2022-11-20T03:08:12;2.30;99.90
13409;DHT22;6775;49.574;11.170;2022-11-20T03:10:40;2.30;99.90
13409;DHT22;6775;49.574;11.170;2022-11-20T03:13:08;2.20;99.90
13409;DHT22;6775;49.574;11.170;2022-11-20T03:15:36;2.20;99.90
13409;DHT22;6775;49.574;11.170;2022-11-20T03:18:05;2.20;99.90
13409;DHT22;6775;49.574;11.170;2022-11-20T03:20:34;2.20;99.90
13409;DHT22;6775;49.574;11.170;2022-11-20T03:23:02;2.10;99.90
13409;DHT22;6775;49.574;11.170;2022-11-20T03:25:30;2.10;99.90
13409;DHT22;6775;49.574;11.170;2022-11-20T03:27:58;2.00;99.90
13409;DHT22;6775;49.574;11.170;2022-11-20T03:30:26;1.90;99.90
13409;DHT22;6775;49.574;11.170;2022-11-20T03:32:56;1.90;99.90
13409;DHT22;6775;49.574;11.170;2022-11-20T03:35:25;1.90;99.90
13409;DHT22;6775;49.574;11.170;2022-11-20T03:37:53;1.90;99.90
13409;DHT22;6775;49.574;11.170;2022-11-20T03:40:21;1.90;99.90
13409;DHT22;6775;49.574;11.170;2022-11-20T03:42:49;2.00;99.90
13409;DHT22;6775;49.574;11.170;2022-11-20T03:45:17;1.90;99.90
13409;DHT22;6775;49.574;11.170;2022-11-20T03:47:45;2.00;99.90
13409;DHT22;6775;49.574;11.170;2022-11-20T03:50:14;2.00;99.90
13409;DHT22;6775;49.574;11.170;2022-11-20T03:52:43;1.90;99.90
13409;DHT22;6775;49.574;11.170;2022-11-20T03:55:11;1.90;99.90
13409;DHT22;6775;49.574;11.170;2022-11-20T03:57:39;1.90;99.90
13409;DHT22;6775;49.574;11.170;2022-11-20T04:00:07;1.90;99.90
13409;DHT22;6775;49.574;11.170;2022-11-20T04:02:35;1.90;99.90
13409;DHT22;6775;49.574;11.170;2022-11-20T04:05:03;1.90;99.90
13409;DHT22;6775;49.574;11.170;2022-11-20T04:07:33;1.90;99.90
13409;DHT22;6775;49.574;11.170;2022-11-20T04:10:03;1.90;99.90
13409;DHT22;6775;49.574;11.170;2022-11-20T04:12:32;1.90;99.90
13409;DHT22;6775;49.574;11.170;2022-11-20T04:15:01;1.90;99.90
13409;DHT22;6775;49.574;11.170;2022-11-20T04:17:28;1.90;99.90
13409;DHT22;6775;49.574;11.170;2022-11-20T04:19:56;1.90;99.90
13409;DHT22;6775;49.574;11.170;2022-11-20T04:22:24;1.80;99.90
13409;DHT22;6775;49.574;11.170;2022-11-20T04:24:52;1.80;99.90
13409;DHT22;6775;49.574;11.170;2022-11-20T04:27:21;1.80;99.90
13409;DHT22;6775;49.574;11.170;2022-11-20T04:29:49;1.80;99.90
13409;DHT22;6775;49.574;11.170;2022-11-20T04:32:16;1.70;99.90
13409;DHT22;6775;49.574;11.170;2022-11-20T04:34:44;1.70;99.90
13409;DHT22;6775;49.574;11.170;2022-11-20T04:37:12;1.80;99.90
13409;DHT22;6775;49.574;11.170;2022-11-20T04:39:40;1.90;99.90
13409;DHT22;6775;49.574;11.170;2022-11-20T04:42:08;1.90;99.90
13409;DHT22;6775;49.574;11.170;2022-11-20T04:44:56;2.00;99.90
13409;DHT22;6775;49.574;11.170;2022-11-20T04:47:24;2.00;99.90
13409;DHT22;6775;49.574;11.170;2022-11-20T04:49:52;2.00;99.90
13409;DHT22;6775;49.574;11.170;2022-11-20T04:52:20;2.00;99.90
13409;DHT22;6775;49.574;11.170;2022-11-20T04:54:48;2.00;99.90
13409;DHT22;6775;49.574;11.170;2022-11-20T04:57:19;1.90;99.90
13409;DHT22;6775;49.574;11.170;2022-11-20T04:59:47;2.00;99.90
13409;DHT22;6775;49.574;11.170;2022-11-20T05:02:16;2.00;99.90
13409;DHT22;6775;49.574;11.170;2022-11-20T05:04:44;2.10;99.90
13409;DHT22;6775;49.574;11.170;2022-11-20T05:07:12;2.10;99.90
13409;DHT22;6775;49.574;11.170;2022-11-20T05:09:40;2.00;99.90
13409;DHT22;6775;49.574;11.170;2022-11-20T05:12:08;2.00;99.90
13409;DHT22;6775;49.574;11.170;2022-11-20T05:14:36;2.00;99.90
13409;DHT22;6775;49.574;11.170;2022-11-20T05:17:04;1.90;99.90
13409;DHT22;6775;49.574;11.170;2022-11-20T05:19:33;1.90;99.90
13409;DHT22;6775;49.574;11.170;2022-11-20T05:22:01;1.80;99.90
13409;DHT22;6775;49.574;11.170;2022-11-20T05:24:28;1.70;99.90
13409;DHT22;6775;49.574;11.170;2022-11-20T05:26:56;1.80;99.90
13409;DHT22;6775;49.574;11.170;2022-11-20T05:29:24;1.80;99.90
13409;DHT22;6775;49.574;11.170;2022-11-20T05:31:52;1.80;99.90
13409;DHT22;6775;49.574;11.170;2022-11-20T05:34:19;1.80;99.90
13409;DHT22;6775;49.574;11.170;2022-11-20T05:36:49;1.80;99.90
13409;DHT22;6775;49.574;11.170;2022-11-20T05:39:16;1.80;99.90
13409;DHT22;6775;49.574;11.170;2022-11-20T05:41:45;1.80;99.90
13409;DHT22;6775;49.574;11.170;2022-11-20T05:44:13;1.70;99.90
13409;DHT22;6775;49.574;11.170;2022-11-20T05:46:40;1.70;99.90
13409;DHT22;6775;49.574;11.170;2022-11-20T05:49:08;1.80;99.90
13409;DHT22;6775;49.574;11.170;2022-11-20T05:51:36;1.90;99.90
13409;DHT22;6775;49.574;11.170;2022-11-20T05:54:05;1.90;99.90
13409;DHT22;6775;49.574;11.170;2022-11-20T05:56:33;1.90;99.90
13409;DHT22;6775;49.574;11.170;2022-11-20T05:59:05;2.00;99.90
13409;DHT22;6775;49.574;11.170;2022-11-20T06:01:32;2.00;99.90
13409;DHT22;6775;49.574;11.170;2022-11-20T06:04:02;2.00;99.90
13409;DHT22;6775;49.574;11.170;2022-11-20T06:06:30;2.00;99.90
13409;DHT22;6775;49.574;11.170;2022-11-20T06:08:58;2.10;99.90
13409;DHT22;6775;49.574;11.170;2022-11-20T06:11:27;2.10;99.90
13409;DHT22;6775;49.574;11.170;2022-11-20T06:13:55;2.10;99.90
13409;DHT22;6775;49.574;11.170;2022-11-20T06:16:23;2.10;99.90
13409;DHT22;6775;49.574;11.170;2022-11-20T06:18:51;2.00;99.90
13409;DHT22;6775;49.574;11.170;2022-11-20T06:21:20;2.10;99.90
13409;DHT22;6775;49.574;11.170;2022-11-20T06:23:49;2.10;99.90
13409;DHT22;6775;49.574;11.170;2022-11-20T06:26:19;2.10;99.90
13409;DHT22;6775;49.574;11.170;2022-11-20T06:28:49;2.00;99.90
13409;DHT22;6775;49.574;11.170;2022-11-20T06:31:18;1.90;99.90
13409;DHT22;6775;49.574;11.170;2022-11-20T06:33:47;1.90;99.90
13409;DHT22;6775;49.574;11.170;2022-11-20T06:36:16;1.90;99.90
13409;DHT22;6775;49.574;11.170;2022-11-20T06:38:44;1.90;99.90
13409;DHT22;6775;49.574;11.170;2022-11-20T06:41:15;2.00;99.90
13409;DHT22;6775;49.574;11.170;2022-11-20T06:43:43;2.10;99.90
13409;DHT22;6775;49.574;11.170;2022-11-20T06:46:13;2.20;99.90
13409;DHT22;6775;49.574;11.170;2022-11-20T06:48:44;2.30;99.90
13409;DHT22;6775;49.574;11.170;2022-11-20T06:51:12;2.30;99.90
13409;DHT22;6775;49.574;11.170;2022-11-20T06:53:40;2.30;99.90
13409;DHT22;6775;49.574;11.170;2022-11-20T06:56:08;2.40;99.90
13409;DHT22;6775;49.574;11.170;2022-11-20T06:58:36;2.40;99.90
13409;DHT22;6775;49.574;11.170;2022-11-20T07:01:05;2.40;99.90
13409;DHT22;6775;49.574;11.170;2022-11-20T07:03:35;2.50;99.90
13409;DHT22;6775;49.574;11.170;2022-11-20T07:06:04;2.50;99.90
13409;DHT22;6775;49.574;11.170;2022-11-20T07:08:32;2.60;99.90
13409;DHT22;6775;49.574;11.170;2022-11-20T07:11:01;2.60;99.90
13409;DHT22;6775;49.574;11.170;2022-11-20T07:13:30;2.60;99.90
13409;DHT22;6775;49.574;11.170;2022-11-20T07:15:59;2.60;99.90
13409;DHT22;6775;49.574;11.170;2022-11-20T07:18:27;2.60;99.90
13409;DHT22;6775;49.574;11.170;2022-11-20T07:20:59;2.60;99.90
13409;DHT22;6775;49.574;11.170;2022-11-20T07:23:27;2.60;99.90
13409;DHT22;6775;49.574;11.170;2022-11-20T07:25:55;2.70;99.90
13409;DHT22;6775;49.574;11.170;2022-11-20T07:28:22;2.70;99.90
13409;DHT22;6775;49.574;11.170;2022-11-20T07:30:51;2.70;99.90
13409;DHT22;6775;49.574;11.170;2022-11-20T07:33:19;2.60;99.90
13409;DHT22;6775;49.574;11.170;2022-11-20T07:35:47;2.60;99.90
13409;DHT22;6775;49.574;11.170;2022-11-20T07:38:16;2.60;99.90
13409;DHT22;6775;49.574;11.170;2022-11-20T07:40:44;2.50;99.90
13409;DHT22;6775;49.574;11.170;2022-11-20T07:43:12;2.50;99.90
13409;DHT22;6775;49.574;11.170;2022-11-20T07:45:39;2.50;99.90
13409;DHT22;6775;49.574;11.170;2022-11-20T07:48:07;2.50;99.90
13409;DHT22;6775;49.574;11.170;2022-11-20T07:50:35;2.60;99.90
13409;DHT22;6775;49.574;11.170;2022-11-20T07:53:03;2.60;99.90
13409;DHT22;6775;49.574;11.170;2022-11-20T07:55:33;2.70;99.90
13409;DHT22;6775;49.574;11.170;2022-11-20T07:58:01;2.70;99.90
13409;DHT22;6775;49.574;11.170;2022-11-20T08:00:29;2.70;99.90
13409;DHT22;6775;49.574;11.170;2022-11-20T08:02:57;2.70;99.90
13409;DHT22;6775;49.574;11.170;2022-11-20T08:05:25;2.70;99.90
13409;DHT22;6775;49.574;11.170;2022-11-20T08:07:52;2.80;99.90
13409;DHT22;6775;49.574;11.170;2022-11-20T08:10:20;2.80;99.90
13409;DHT22;6775;49.574;11.170;2022-11-20T08:12:50;2.80;99.90
13409;DHT22;6775;49.574;11.170;2022-11-20T08:15:37;2.80;99.90
13409;DHT22;6775;49.574;11.170;2022-11-20T08:18:07;2.80;99.90
13409;DHT22;6775;49.574;11.170;2022-11-20T08:20:55;2.90;99.90
13409;DHT22;6775;49.574;11.170;2022-11-20T08:23:23;2.80;99.90
13409;DHT22;6775;49.574;11.170;2022-11-20T08:25:51;2.80;99.90
13409;DHT22;6775;49.574;11.170;2022-11-20T08:28:20;2.80;99.90
13409;DHT22;6775;49.574;11.170;2022-11-20T08:30:48;2.80;99.90
13409;DHT22;6775;49.574;11.170;2022-11-20T08:33:16;2.80;99.90
13409;DHT22;6775;49.574;11.170;2022-11-20T08:35:45;2.80;99.90
13409;DHT22;6775;49.574;11.170;2022-11-20T08:38:12;2.70;99.90
13409;DHT22;6775;49.574;11.170;2022-11-20T08:40:40;2.70;99.90
13409;DHT22;6775;49.574;11.170;2022-11-20T08:43:29;2.70;99.90
13409;DHT22;6775;49.574;11.170;2022-11-20T08:45:57;2.70;99.90
13409;DHT22;6775;49.574;11.170;2022-11-20T08:48:25;2.70;99.90
13409;DHT22;6775;49.574;11.170;2022-11-20T08:50:53;2.70;99.90
13409;DHT22;6775;49.574;11.170;2022-11-20T08:53:21;2.80;99.90
13409;DHT22;6775;49.574;11.170;2022-11-20T08:55:48;2.80;99.90
13409;DHT22;6775;49.574;11.170;2022-11-20T08:58:16;2.80;99.90
13409;DHT22;6775;49.574;11.170;2022-11-20T09:00:45;2.80;99.90
13409;DHT22;6775;49.574;11.170;2022-11-20T09:03:13;2.80;99.90
13409;DHT22;6775;49.574;11.170;2022-11-20T09:05:41;2.80;99.90
13409;DHT22;6775;49.574;11.170;2022-11-20T09:08:09;2.80;99.90
13409;DHT22;6775;49.574;11.170;2022-11-20T09:10:37;2.80;99.90
13409;DHT22;6775;49.574;11.170;2022-11-20T09:13:06;2.80;99.90
13409;DHT22;6775;49.574;11.170;2022-11-20T09:15:34;2.70;99.90
13409;DHT22;6775;49.574;11.170;2022-11-20T09:18:03;2.70;99.90
13409;DHT22;6775;49.574;11.170;2022-11-20T09:20:31;2.70;99.90
13409;DHT22;6775;49.574;11.170;2022-11-20T09:22:59;2.80;99.90
13409;DHT22;6775;49.574;11.170;2022-11-20T09:25:27;2.80;99.90
13409;DHT22;6775;49.574;11.170;2022-11-20T09:27:55;2.80;99.90
13409;DHT22;6775;49.574;11.170;2022-11-20T09:30:24;2.80;99.90
13409;DHT22;6775;49.574;11.170;2022-11-20T09:32:52;2.90;99.90
13409;DHT22;6775;49.574;11.170;2022-11-20T09:35:21;3.00;99.90
13409;DHT22;6775;49.574;11.170;2022-11-20T09:37:49;3.10;99.90
13409;DHT22;6775;49.574;11.170;2022-11-20T09:40:19;3.10;99.90
13409;DHT22;6775;49.574;11.170;2022-11-20T09:42:52;3.20;99.90
13409;DHT22;6775;49.574;11.170;2022-11-20T09:45:35;3.20;99.90
13409;DHT22;6775;49.574;11.170;2022-11-20T09:48:36;3.20;99.90
13409;DHT22;6775;49.574;11.170;2022-11-20T09:51:13;3.10;99.90
13409;DHT22;6775;49.574;11.170;2022-11-20T09:53:55;3.10;99.90
13409;DHT22;6775;49.574;11.170;2022-11-20T09:56:27;3.10;99.90
13409;DHT22;6775;49.574;11.170;2022-11-20T09:58:59;3.10;99.90
13409;DHT22;6775;49.574;11.170;2022-11-20T10:01:32;3.10;99.90
13409;DHT22;6775;49.574;11.170;2022-11-20T10:04:04;3.20;99.90
13409;DHT22;6775;49.574;11.170;2022-11-20T10:06:44;3.20;99.90
13409;DHT22;6775;49.574;11.170;2022-11-20T10:09:25;3.20;99.90
13409;DHT22;6775;49.574;11.170;2022-11-20T10:12:09;3.20;99.90
13409;DHT22;6775;49.574;11.170;2022-11-20T10:14:51;3.30;99.90
13409;DHT22;6775;49.574;11.170;2022-11-20T10:17:30;3.30;99.90
13409;DHT22;6775;49.574;11.170;2022-11-20T10:20:16;3.30;99.90
13409;DHT22;6775;49.574;11.170;2022-11-20T10:22:58;3.40;99.90
13409;DHT22;6775;49.574;11.170;2022-11-20T10:25:36;3.40;99.90
13409;DHT22;6775;49.574;11.170;2022-11-20T10:28:34;3.40;99.90
13409;DHT22;6775;49.574;11.170;2022-11-20T10:31:11;3.30;99.90
13409;DHT22;6775;49.574;11.170;2022-11-20T10:33:42;3.40;99.90
13409;DHT22;6775;49.574;11.170;2022-11-20T10:36:36;3.40;99.90
13409;DHT22;6775;49.574;11.170;2022-11-20T10:39:16;3.40;99.90
13409;DHT22;6775;49.574;11.170;2022-11-20T10:41:50;3.40;99.90
13409;DHT22;6775;49.574;11.170;2022-11-20T10:44:20;3.30;99.90
13409;DHT22;6775;49.574;11.170;2022-11-20T10:47:04;3.30;99.90
13409;DHT22;6775;49.574;11.170;2022-11-20T10:49:32;3.20;99.90
13409;DHT22;6775;49.574;11.170;2022-11-20T10:52:06;3.20;99.90
13409;DHT22;6775;49.574;11.170;2022-11-20T10:54:44;3.20;99.90
13409;DHT22;6775;49.574;11.170;2022-11-20T10:57:24;3.10;99.90
13409;DHT22;6775;49.574;11.170;2022-11-20T11:00:01;3.10;99.90
13409;DHT22;6775;49.574;11.170;2022-11-20T11:02:40;3.10;99.90
13409;DHT22;6775;49.574;11.170;2022-11-20T11:05:23;3.00;99.90
13409;DHT22;6775;49.574;11.170;2022-11-20T11:07:55;3.00;99.90
13409;DHT22;6775;49.574;11.170;2022-11-20T11:10:31;3.00;99.90
13409;DHT22;6775;49.574;11.170;2022-11-20T11:13:00;3.00;99.90
13409;DHT22;6775;49.574;11.170;2022-11-20T11:15:36;3.10;99.90
13409;DHT22;6775;49.574;11.170;2022-11-20T11:18:05;3.10;99.90
13409;DHT22;6775;49.574;11.170;2022-11-20T11:20:35;3.10;99.90
13409;DHT22;6775;49.574;11.170;2022-11-20T11:23:10;3.10;99.90
13409;DHT22;6775;49.574;11.170;2022-11-20T11:25:57;3.20;99.90
13409;DHT22;6775;49.574;11.170;2022-11-20T11:28:26;3.10;99.90
13409;DHT22;6775;49.574;11.170;2022-11-20T11:30:54;3.20;99.90
13409;DHT22;6775;49.574;11.170;2022-11-20T11:33:23;3.20;99.90
13409;DHT22;6775;49.574;11.170;2022-11-20T11:35:53;3.10;99.90
13409;DHT22;6775;49.574;11.170;2022-11-20T11:38:29;3.20;99.90
13409;DHT22;6775;49.574;11.170;2022-11-20T11:41:00;3.30;99.90
13409;DHT22;6775;49.574;11.170;2022-11-20T11:43:31;3.50;99.90
13409;DHT22;6775;49.574;11.170;2022-11-20T11:46:25;3.70;99.90
13409;DHT22;6775;49.574;11.170;2022-11-20T11:48:59;4.00;99.90
13409;DHT22;6775;49.574;11.170;2022-11-20T11:51:33;4.40;99.90
13409;DHT22;6775;49.574;11.170;2022-11-20T11:54:21;4.80;99.90
13409;DHT22;6775;49.574;11.170;2022-11-20T11:56:53;5.10;99.90
13409;DHT22;6775;49.574;11.170;2022-11-20T11:59:25;5.60;99.90
13409;DHT22;6775;49.574;11.170;2022-11-20T12:01:58;6.00;99.90
13409;DHT22;6775;49.574;11.170;2022-11-20T12:04:40;6.00;99.90
13409;DHT22;6775;49.574;11.170;2022-11-20T12:07:12;6.00;99.90
13409;DHT22;6775;49.574;11.170;2022-11-20T12:10:02;5.80;99.90
13409;DHT22;6775;49.574;11.170;2022-11-20T12:12:36;5.60;99.90
13409;DHT22;6775;49.574;11.170;2022-11-20T12:15:08;5.40;99.90
13409;DHT22;6775;49.574;11.170;2022-11-20T12:17:38;5.20;99.90
13409;DHT22;6775;49.574;11.170;2022-11-20T12:20:11;5.10;99.90
13409;DHT22;6775;49.574;11.170;2022-11-20T12:22:45;5.00;99.90
13409;DHT22;6775;49.574;11.170;2022-11-20T12:25:20;5.00;99.90
13409;DHT22;6775;49.574;11.170;2022-11-20T12:28:02;4.90;99.90
13409;DHT22;6775;49.574;11.170;2022-11-20T12:30:33;4.70;99.90
13409;DHT22;6775;49.574;11.170;2022-11-20T12:33:18;4.60;99.90
13409;DHT22;6775;49.574;11.170;2022-11-20T12:35:57;4.60;99.90
13409;DHT22;6775;49.574;11.170;2022-11-20T12:41:59;4.40;99.90
13409;DHT22;6775;49.574;11.170;2022-11-20T12:45:20;4.30;99.90
13409;DHT22;6775;49.574;11.170;2022-11-20T12:50:57;4.20;99.90
13409;DHT22;6775;49.574;11.170;2022-11-20T12:53:53;4.20;99.90
13409;DHT22;6775;49.574;11.170;2022-11-20T12:56:30;4.20;99.90
13409;DHT22;6775;49.574;11.170;2022-11-20T12:59:10;4.30;99.90
13409;DHT22;6775;49.574;11.170;2022-11-20T13:01:52;4.30;99.90
13409;DHT22;6775;49.574;11.170;2022-11-20T13:04:39;4.40;99.90
13409;DHT22;6775;49.574;11.170;2022-11-20T13:07:13;4.30;99.90
13409;DHT22;6775;49.574;11.170;2022-11-20T13:09:44;4.40;99.90
13409;DHT22;6775;49.574;11.170;2022-11-20T13:12:17;4.30;99.90
13409;DHT22;6775;49.574;11.170;2022-11-20T13:14:52;4.30;99.90
13409;DHT22;6775;49.574;11.170;2022-11-20T13:17:28;4.20;99.90
13409;DHT22;6775;49.574;11.170;2022-11-20T13:19:58;4.20;99.90
13409;DHT22;6775;49.574;11.170;2022-11-20T13:22:28;4.10;99.90
13409;DHT22;6775;49.574;11.170;2022-11-20T13:24:56;4.10;99.90
13409;DHT22;6775;49.574;11.170;2022-11-20T13:27:24;4.10;99.90
13409;DHT22;6775;49.574;11.170;2022-11-20T13:30:11;4.10;99.90
13409;DHT22;6775;49.574;11.170;2022-11-20T13:32:50;4.10;99.90
13409;DHT22;6775;49.574;11.170;2022-11-20T13:35:28;4.10;99.90
13409;DHT22;6775;49.574;11.170;2022-11-20T13:38:00;4.20;99.90
13409;DHT22;6775;49.574;11.170;2022-11-20T13:40:28;4.10;99.90
13409;DHT22;6775;49.574;11.170;2022-11-20T13:43:04;4.10;99.90
13409;DHT22;6775;49.574;11.170;2022-11-20T13:45:34;4.10;99.90
13409;DHT22;6775;49.574;11.170;2022-11-20T13:48:15;4.00;99.90
13409;DHT22;6775;49.574;11.170;2022-11-20T13:50:53;4.00;99.90
13409;DHT22;6775;49.574;11.170;2022-11-20T13:54:06;4.00;99.90
13409;DHT22;6775;49.574;11.170;2022-11-20T13:56:47;4.10;99.90
13409;DHT22;6775;49.574;11.170;2022-11-20T13:59:31;4.10;99.90
13409;DHT22;6775;49.574;11.170;2022-11-20T14:02:10;4.10;99.90
13409;DHT22;6775;49.574;11.170;2022-11-20T14:04:43;4.00;99.90
13409;DHT22;6775;49.574;11.170;2022-11-20T14:07:13;4.10;99.90
13409;DHT22;6775;49.574;11.170;2022-11-20T14:09:50;4.00;99.90
13409;DHT22;6775;49.574;11.170;2022-11-20T14:12:22;4.00;99.90
13409;DHT22;6775;49.574;11.170;2022-11-20T14:14:51;4.00;99.90
13409;DHT22;6775;49.574;11.170;2022-11-20T14:17:21;4.10;99.90
13409;DHT22;6775;49.574;11.170;2022-11-20T14:19:51;4.10;99.90
13409;DHT22;6775;49.574;11.170;2022-11-20T14:22:21;4.20;99.90
13409;DHT22;6775;49.574;11.170;2022-11-20T14:25:03;4.20;99.90
13409;DHT22;6775;49.574;11.170;2022-11-20T14:27:34;4.20;99.90
13409;DHT22;6775;49.574;11.170;2022-11-20T14:30:04;4.10;99.90
13409;DHT22;6775;49.574;11.170;2022-11-20T14:32:35;4.10;99.90
13409;DHT22;6775;49.574;11.170;2022-11-20T14:35:08;4.10;99.90
13409;DHT22;6775;49.574;11.170;2022-11-20T14:37:38;4.10;99.90
13409;DHT22;6775;49.574;11.170;2022-11-20T14:40:23;4.20;99.90
13409;DHT22;6775;49.574;11.170;2022-11-20T14:42:55;4.20;99.90
13409;DHT22;6775;49.574;11.170;2022-11-20T14:45:24;4.60;99.90
13409;DHT22;6775;49.574;11.170;2022-11-20T14:47:54;4.30;99.90
13409;DHT22;6775;49.574;11.170;2022-11-20T14:50:25;4.40;99.90
13409;DHT22;6775;49.574;11.170;2022-11-20T14:52:55;4.50;99.90
13409;DHT22;6775;49.574;11.170;2022-11-20T14:55:31;4.50;99.90
13409;DHT22;6775;49.574;11.170;2022-11-20T14:58:00;4.40;99.90
13409;DHT22;6775;49.574;11.170;2022-11-20T15:00:30;4.40;99.90
13409;DHT22;6775;49.574;11.170;2022-11-20T15:02:58;4.40;99.90
13409;DHT22;6775;49.574;11.170;2022-11-20T15:05:45;4.40;99.90
13409;DHT22;6775;49.574;11.170;2022-11-20T15:08:14;4.30;99.90
13409;DHT22;6775;49.574;11.170;2022-11-20T15:10:46;4.20;99.90
13409;DHT22;6775;49.574;11.170;2022-11-20T15:13:17;4.20;99.90
13409;DHT22;6775;49.574;11.170;2022-11-20T15:15:49;4.20;99.90
13409;DHT22;6775;49.574;11.170;2022-11-20T15:18:19;4.20;99.90
13409;DHT22;6775;49.574;11.170;2022-11-20T15:20:50;4.10;99.90
13409;DHT22;6775;49.574;11.170;2022-11-20T15:23:19;4.10;99.90
13409;DHT22;6775;49.574;11.170;2022-11-20T15:25:47;4.10;99.90
13409;DHT22;6775;49.574;11.170;2022-11-20T15:28:20;4.10;99.90
13409;DHT22;6775;49.574;11.170;2022-11-20T15:30:49;4.10;99.90
13409;DHT22;6775;49.574;11.170;2022-11-20T15:33:18;4.10;99.90
13409;DHT22;6775;49.574;11.170;2022-11-20T15:35:46;4.10;99.90
13409;DHT22;6775;49.574;11.170;2022-11-20T15:38:15;4.20;99.90
13409;DHT22;6775;49.574;11.170;2022-11-20T15:40:43;4.20;99.90
13409;DHT22;6775;49.574;11.170;2022-11-20T15:43:11;4.30;99.90
13409;DHT22;6775;49.574;11.170;2022-11-20T15:45:42;4.30;99.90
13409;DHT22;6775;49.574;11.170;2022-11-20T15:48:12;4.30;99.90
13409;DHT22;6775;49.574;11.170;2022-11-20T15:50:49;4.30;99.90
13409;DHT22;6775;49.574;11.170;2022-11-20T15:53:19;4.30;99.90
13409;DHT22;6775;49.574;11.170;2022-11-20T15:55:47;4.30;99.90
13409;DHT22;6775;49.574;11.170;2022-11-20T15:58:15;4.30;99.90
13409;DHT22;6775;49.574;11.170;2022-11-20T16:00:43;4.30;99.90
13409;DHT22;6775;49.574;11.170;2022-11-20T16:03:12;4.30;99.90
13409;DHT22;6775;49.574;11.170;2022-11-20T16:05:40;4.40;99.90
13409;DHT22;6775;49.574;11.170;2022-11-20T16:08:08;4.50;99.90
13409;DHT22;6775;49.574;11.170;2022-11-20T16:10:39;4.50;99.90
13409;DHT22;6775;49.574;11.170;2022-11-20T16:13:12;4.50;99.90
13409;DHT22;6775;49.574;11.170;2022-11-20T16:16:00;4.50;99.90
13409;DHT22;6775;49.574;11.170;2022-11-20T16:18:28;4.50;99.90
13409;DHT22;6775;49.574;11.170;2022-11-20T16:20:56;4.50;99.90